sensor_id;sensor_type;location;lat;lon;timestamp;P1;durP1;ratioP1;P2;durP2;ratioP2
77598;SDS011;66758;52.078;5.070;2023-04-24T00:01:20;3.80;;;1.50;;
77598;SDS011;66758;52.078;5.070;2023-04-24T00:03:46;3.80;;;1.50;;
77598;SDS011;66758;52.078;5.070;2023-04-24T00:06:11;3.17;;;1.60;;
77598;SDS011;66758;52.078;5.070;2023-04-24T00:08:36;8.70;;;2.87;;
77598;SDS011;66758;52.078;5.070;2023-04-24T00:11:02;6.53;;;3.10;;
77598;SDS011;66758;52.078;5.070;2023-04-24T00:13:28;5.53;;;2.80;;
77598;SDS011;66758;52.078;5.070;2023-04-24T00:15:55;5.60;;;3.20;;
77598;SDS011;66758;52.078;5.070;2023-04-24T00:18:20;5.35;;;3.25;;
77598;SDS011;66758;52.078;5.070;2023-04-24T00:20:45;6.33;;;3.03;;
77598;SDS011;66758;52.078;5.070;2023-04-24T00:23:11;6.05;;;3.30;;
77598;SDS011;66758;52.078;5.070;2023-04-24T00:25:36;4.93;;;3.20;;
77598;SDS011;66758;52.078;5.070;2023-04-24T00:28:02;5.87;;;3.50;;
77598;SDS011;66758;52.078;5.070;2023-04-24T00:30:27;6.17;;;3.73;;
77598;SDS011;66758;52.078;5.070;2023-04-24T00:32:52;5.10;;;3.13;;
77598;SDS011;66758;52.078;5.070;2023-04-24T00:35:17;7.83;;;3.30;;
77598;SDS011;66758;52.078;5.070;2023-04-24T00:37:44;10.68;;;3.85;;
77598;SDS011;66758;52.078;5.070;2023-04-24T00:40:10;6.67;;;3.80;;
77598;SDS011;66758;52.078;5.070;2023-04-24T00:42:35;7.55;;;3.97;;
77598;SDS011;66758;52.078;5.070;2023-04-24T00:45:01;8.07;;;3.93;;
77598;SDS011;66758;52.078;5.070;2023-04-24T00:47:28;6.97;;;3.83;;
77598;SDS011;66758;52.078;5.070;2023-04-24T00:49:53;8.77;;;4.23;;
77598;SDS011;66758;52.078;5.070;2023-04-24T00:52:19;5.65;;;4.05;;
77598;SDS011;66758;52.078;5.070;2023-04-24T00:54:45;5.93;;;3.80;;
77598;SDS011;66758;52.078;5.070;2023-04-24T00:57:10;6.53;;;4.27;;
77598;SDS011;66758;52.078;5.070;2023-04-24T00:59:36;7.10;;;4.10;;
77598;SDS011;66758;52.078;5.070;2023-04-24T01:02:01;6.67;;;4.57;;
77598;SDS011;66758;52.078;5.070;2023-04-24T01:04:26;6.53;;;4.20;;
77598;SDS011;66758;52.078;5.070;2023-04-24T01:06:52;6.83;;;4.97;;
77598;SDS011;66758;52.078;5.070;2023-04-24T01:09:17;7.07;;;4.75;;
77598;SDS011;66758;52.078;5.070;2023-04-24T01:11:43;9.63;;;5.40;;
77598;SDS011;66758;52.078;5.070;2023-04-24T01:14:09;9.77;;;6.00;;
77598;SDS011;66758;52.078;5.070;2023-04-24T01:16:34;11.85;;;5.82;;
77598;SDS011;66758;52.078;5.070;2023-04-24T01:19:00;8.38;;;5.28;;
77598;SDS011;66758;52.078;5.070;2023-04-24T01:21:26;9.00;;;5.33;;
77598;SDS011;66758;52.078;5.070;2023-04-24T01:23:52;9.60;;;5.40;;
77598;SDS011;66758;52.078;5.070;2023-04-24T01:26:18;10.63;;;6.13;;
77598;SDS011;66758;52.078;5.070;2023-04-24T01:28:45;12.30;;;6.10;;
77598;SDS011;66758;52.078;5.070;2023-04-24T01:31:10;8.93;;;5.45;;
77598;SDS011;66758;52.078;5.070;2023-04-24T01:33:35;9.60;;;5.13;;
77598;SDS011;66758;52.078;5.070;2023-04-24T01:36:01;10.60;;;5.63;;
77598;SDS011;66758;52.078;5.070;2023-04-24T01:38:26;8.97;;;5.93;;
77598;SDS011;66758;52.078;5.070;2023-04-24T01:40:51;9.57;;;6.18;;
77598;SDS011;66758;52.078;5.070;2023-04-24T01:43:17;8.03;;;5.60;;
77598;SDS011;66758;52.078;5.070;2023-04-24T01:45:43;8.90;;;5.90;;
77598;SDS011;66758;52.078;5.070;2023-04-24T01:48:08;9.27;;;5.93;;
77598;SDS011;66758;52.078;5.070;2023-04-24T01:50:34;8.70;;;4.97;;
77598;SDS011;66758;52.078;5.070;2023-04-24T01:52:59;8.83;;;5.50;;
77598;SDS011;66758;52.078;5.070;2023-04-24T01:55:24;8.93;;;5.23;;
77598;SDS011;66758;52.078;5.070;2023-04-24T01:57:50;8.00;;;5.22;;
77598;SDS011;66758;52.078;5.070;2023-04-24T02:00:18;8.20;;;4.90;;
77598;SDS011;66758;52.078;5.070;2023-04-24T02:02:43;7.97;;;4.80;;
77598;SDS011;66758;52.078;5.070;2023-04-24T02:05:09;8.23;;;4.03;;
77598;SDS011;66758;52.078;5.070;2023-04-24T02:07:34;6.87;;;4.00;;
77598;SDS011;66758;52.078;5.070;2023-04-24T02:10:00;6.97;;;4.13;;
77598;SDS011;66758;52.078;5.070;2023-04-24T02:12:25;8.93;;;4.63;;
77598;SDS011;66758;52.078;5.070;2023-04-24T02:14:50;5.93;;;3.50;;
77598;SDS011;66758;52.078;5.070;2023-04-24T02:17:16;7.53;;;4.07;;
77598;SDS011;66758;52.078;5.070;2023-04-24T02:19:41;7.07;;;4.30;;
77598;SDS011;66758;52.078;5.070;2023-04-24T02:22:07;7.93;;;4.50;;
77598;SDS011;66758;52.078;5.070;2023-04-24T02:24:32;6.77;;;4.10;;
77598;SDS011;66758;52.078;5.070;2023-04-24T02:26:57;6.20;;;3.80;;
77598;SDS011;66758;52.078;5.070;2023-04-24T02:29:23;8.30;;;3.90;;
77598;SDS011;66758;52.078;5.070;2023-04-24T02:31:48;7.53;;;4.35;;
77598;SDS011;66758;52.078;5.070;2023-04-24T02:34:13;7.90;;;4.60;;
77598;SDS011;66758;52.078;5.070;2023-04-24T02:36:38;8.47;;;4.37;;
77598;SDS011;66758;52.078;5.070;2023-04-24T02:39:04;8.80;;;4.43;;
77598;SDS011;66758;52.078;5.070;2023-04-24T02:41:29;8.00;;;4.23;;
77598;SDS011;66758;52.078;5.070;2023-04-24T02:43:57;8.23;;;4.85;;
77598;SDS011;66758;52.078;5.070;2023-04-24T02:46:22;8.90;;;4.60;;
77598;SDS011;66758;52.078;5.070;2023-04-24T02:48:47;9.90;;;4.90;;
77598;SDS011;66758;52.078;5.070;2023-04-24T02:51:13;8.57;;;5.03;;
77598;SDS011;66758;52.078;5.070;2023-04-24T02:53:38;11.03;;;4.93;;
77598;SDS011;66758;52.078;5.070;2023-04-24T02:56:03;10.97;;;5.50;;
77598;SDS011;66758;52.078;5.070;2023-04-24T02:58:29;8.70;;;4.93;;
77598;SDS011;66758;52.078;5.070;2023-04-24T03:00:55;10.60;;;5.70;;
77598;SDS011;66758;52.078;5.070;2023-04-24T03:03:21;11.67;;;5.70;;
77598;SDS011;66758;52.078;5.070;2023-04-24T03:05:46;12.57;;;6.63;;
77598;SDS011;66758;52.078;5.070;2023-04-24T03:08:12;10.50;;;5.77;;
77598;SDS011;66758;52.078;5.070;2023-04-24T03:10:37;11.40;;;5.82;;
77598;SDS011;66758;52.078;5.070;2023-04-24T03:13:03;11.37;;;6.07;;
77598;SDS011;66758;52.078;5.070;2023-04-24T03:15:28;11.93;;;6.47;;
77598;SDS011;66758;52.078;5.070;2023-04-24T03:17:53;10.60;;;5.73;;
77598;SDS011;66758;52.078;5.070;2023-04-24T03:20:18;9.60;;;5.50;;
77598;SDS011;66758;52.078;5.070;2023-04-24T03:22:44;11.97;;;5.57;;
77598;SDS011;66758;52.078;5.070;2023-04-24T03:25:09;11.00;;;5.83;;
77598;SDS011;66758;52.078;5.070;2023-04-24T03:27:34;11.37;;;5.10;;
77598;SDS011;66758;52.078;5.070;2023-04-24T03:30:00;9.70;;;5.27;;
77598;SDS011;66758;52.078;5.070;2023-04-24T03:32:26;11.60;;;5.37;;
77598;SDS011;66758;52.078;5.070;2023-04-24T03:34:51;11.23;;;5.43;;
77598;SDS011;66758;52.078;5.070;2023-04-24T03:37:16;10.87;;;5.67;;
77598;SDS011;66758;52.078;5.070;2023-04-24T03:39:42;9.70;;;5.23;;
77598;SDS011;66758;52.078;5.070;2023-04-24T03:42:07;12.07;;;5.80;;
77598;SDS011;66758;52.078;5.070;2023-04-24T03:44:33;9.37;;;4.87;;
77598;SDS011;66758;52.078;5.070;2023-04-24T03:46:59;9.67;;;5.17;;
77598;SDS011;66758;52.078;5.070;2023-04-24T03:49:24;11.15;;;5.70;;
77598;SDS011;66758;52.078;5.070;2023-04-24T03:51:49;9.10;;;4.23;;
77598;SDS011;66758;52.078;5.070;2023-04-24T03:54:15;9.57;;;5.07;;
77598;SDS011;66758;52.078;5.070;2023-04-24T03:56:41;9.50;;;4.60;;
77598;SDS011;66758;52.078;5.070;2023-04-24T03:59:06;9.87;;;4.83;;
77598;SDS011;66758;52.078;5.070;2023-04-24T04:01:31;11.17;;;4.73;;
77598;SDS011;66758;52.078;5.070;2023-04-24T04:03:56;11.60;;;5.50;;
77598;SDS011;66758;52.078;5.070;2023-04-24T04:06:22;8.77;;;4.93;;
77598;SDS011;66758;52.078;5.070;2023-04-24T04:08:53;8.37;;;4.40;;
77598;SDS011;66758;52.078;5.070;2023-04-24T04:11:18;10.32;;;4.28;;
77598;SDS011;66758;52.078;5.070;2023-04-24T04:13:44;10.98;;;6.07;;
77598;SDS011;66758;52.078;5.070;2023-04-24T04:16:12;14.65;;;7.20;;
77598;SDS011;66758;52.078;5.070;2023-04-24T04:18:38;11.53;;;5.80;;
77598;SDS011;66758;52.078;5.070;2023-04-24T04:21:03;12.37;;;6.87;;
77598;SDS011;66758;52.078;5.070;2023-04-24T04:23:28;14.43;;;6.80;;
77598;SDS011;66758;52.078;5.070;2023-04-24T04:25:54;12.45;;;6.75;;
77598;SDS011;66758;52.078;5.070;2023-04-24T04:28:20;11.00;;;6.00;;
77598;SDS011;66758;52.078;5.070;2023-04-24T04:30:45;13.10;;;6.03;;
77598;SDS011;66758;52.078;5.070;2023-04-24T04:33:12;14.10;;;6.55;;
77598;SDS011;66758;52.078;5.070;2023-04-24T04:35:37;14.70;;;6.40;;
77598;SDS011;66758;52.078;5.070;2023-04-24T04:38:02;13.13;;;6.17;;
77598;SDS011;66758;52.078;5.070;2023-04-24T04:40:27;14.60;;;6.53;;
77598;SDS011;66758;52.078;5.070;2023-04-24T04:42:53;12.30;;;6.07;;
77598;SDS011;66758;52.078;5.070;2023-04-24T04:45:19;11.17;;;5.03;;
77598;SDS011;66758;52.078;5.070;2023-04-24T04:47:45;9.70;;;4.35;;
77598;SDS011;66758;52.078;5.070;2023-04-24T04:50:10;8.97;;;3.60;;
77598;SDS011;66758;52.078;5.070;2023-04-24T04:52:36;8.10;;;3.20;;
77598;SDS011;66758;52.078;5.070;2023-04-24T04:55:01;6.17;;;2.50;;
77598;SDS011;66758;52.078;5.070;2023-04-24T04:57:26;4.83;;;1.90;;
77598;SDS011;66758;52.078;5.070;2023-04-24T04:59:52;4.37;;;1.10;;
77598;SDS011;66758;52.078;5.070;2023-04-24T05:02:17;4.03;;;1.30;;
77598;SDS011;66758;52.078;5.070;2023-04-24T05:04:42;2.92;;;1.10;;
77598;SDS011;66758;52.078;5.070;2023-04-24T05:07:08;3.83;;;1.13;;
77598;SDS011;66758;52.078;5.070;2023-04-24T05:09:33;2.07;;;0.60;;
77598;SDS011;66758;52.078;5.070;2023-04-24T05:11:58;2.10;;;0.60;;
77598;SDS011;66758;52.078;5.070;2023-04-24T05:14:24;3.60;;;0.67;;
77598;SDS011;66758;52.078;5.070;2023-04-24T05:16:49;2.43;;;0.50;;
77598;SDS011;66758;52.078;5.070;2023-04-24T05:19:15;2.35;;;0.68;;
77598;SDS011;66758;52.078;5.070;2023-04-24T05:21:40;3.80;;;0.70;;
77598;SDS011;66758;52.078;5.070;2023-04-24T05:24:06;3.13;;;0.80;;
77598;SDS011;66758;52.078;5.070;2023-04-24T05:26:31;2.47;;;0.97;;
77598;SDS011;66758;52.078;5.070;2023-04-24T05:28:56;2.83;;;1.03;;
77598;SDS011;66758;52.078;5.070;2023-04-24T05:31:22;5.60;;;1.37;;
77598;SDS011;66758;52.078;5.070;2023-04-24T05:33:47;4.97;;;1.70;;
77598;SDS011;66758;52.078;5.070;2023-04-24T05:36:12;5.60;;;1.67;;
77598;SDS011;66758;52.078;5.070;2023-04-24T05:38:38;4.88;;;2.00;;
77598;SDS011;66758;52.078;5.070;2023-04-24T05:41:03;4.53;;;2.03;;
77598;SDS011;66758;52.078;5.070;2023-04-24T05:43:28;6.97;;;2.77;;
77598;SDS011;66758;52.078;5.070;2023-04-24T05:45:54;6.07;;;3.23;;
77598;SDS011;66758;52.078;5.070;2023-04-24T05:48:19;6.57;;;2.97;;
77598;SDS011;66758;52.078;5.070;2023-04-24T05:50:44;6.13;;;2.43;;
77598;SDS011;66758;52.078;5.070;2023-04-24T05:53:10;7.30;;;2.88;;
77598;SDS011;66758;52.078;5.070;2023-04-24T05:55:36;5.53;;;2.87;;
77598;SDS011;66758;52.078;5.070;2023-04-24T05:58:01;4.82;;;2.55;;
77598;SDS011;66758;52.078;5.070;2023-04-24T06:00:26;5.80;;;2.07;;
77598;SDS011;66758;52.078;5.070;2023-04-24T06:02:51;3.83;;;1.90;;
77598;SDS011;66758;52.078;5.070;2023-04-24T06:05:17;5.15;;;2.97;;
77598;SDS011;66758;52.078;5.070;2023-04-24T06:07:43;11.07;;;4.60;;
77598;SDS011;66758;52.078;5.070;2023-04-24T06:10:08;13.20;;;9.17;;
77598;SDS011;66758;52.078;5.070;2023-04-24T06:12:34;23.50;;;12.40;;
77598;SDS011;66758;52.078;5.070;2023-04-24T06:14:59;21.73;;;12.00;;
77598;SDS011;66758;52.078;5.070;2023-04-24T06:17:25;23.23;;;12.88;;
77598;SDS011;66758;52.078;5.070;2023-04-24T06:19:50;28.33;;;15.47;;
77598;SDS011;66758;52.078;5.070;2023-04-24T06:22:15;21.50;;;11.53;;
77598;SDS011;66758;52.078;5.070;2023-04-24T06:24:41;31.17;;;17.33;;
77598;SDS011;66758;52.078;5.070;2023-04-24T06:27:06;29.13;;;16.60;;
77598;SDS011;66758;52.078;5.070;2023-04-24T06:29:32;31.60;;;14.90;;
77598;SDS011;66758;52.078;5.070;2023-04-24T06:31:58;31.20;;;14.32;;
77598;SDS011;66758;52.078;5.070;2023-04-24T06:34:23;24.77;;;13.07;;
77598;SDS011;66758;52.078;5.070;2023-04-24T06:36:48;34.80;;;19.97;;
77598;SDS011;66758;52.078;5.070;2023-04-24T06:39:14;28.80;;;17.20;;
77598;SDS011;66758;52.078;5.070;2023-04-24T06:41:39;29.67;;;16.17;;
77598;SDS011;66758;52.078;5.070;2023-04-24T06:44:05;28.93;;;13.67;;
77598;SDS011;66758;52.078;5.070;2023-04-24T06:46:30;22.67;;;13.47;;
77598;SDS011;66758;52.078;5.070;2023-04-24T06:48:55;27.70;;;12.43;;
77598;SDS011;66758;52.078;5.070;2023-04-24T06:51:22;29.67;;;14.63;;
77598;SDS011;66758;52.078;5.070;2023-04-24T06:53:47;26.35;;;13.73;;
77598;SDS011;66758;52.078;5.070;2023-04-24T06:56:13;29.73;;;12.27;;
77598;SDS011;66758;52.078;5.070;2023-04-24T06:58:38;28.63;;;11.63;;
77598;SDS011;66758;52.078;5.070;2023-04-24T07:01:03;30.43;;;12.67;;
77598;SDS011;66758;52.078;5.070;2023-04-24T07:03:28;29.67;;;14.73;;
77598;SDS011;66758;52.078;5.070;2023-04-24T07:05:54;25.60;;;12.60;;
77598;SDS011;66758;52.078;5.070;2023-04-24T07:08:19;28.33;;;12.27;;
77598;SDS011;66758;52.078;5.070;2023-04-24T07:10:47;23.98;;;12.15;;
77598;SDS011;66758;52.078;5.070;2023-04-24T07:13:15;29.90;;;10.77;;
77598;SDS011;66758;52.078;5.070;2023-04-24T07:15:40;23.15;;;8.88;;
77598;SDS011;66758;52.078;5.070;2023-04-24T07:18:06;26.17;;;10.10;;
77598;SDS011;66758;52.078;5.070;2023-04-24T07:20:32;25.23;;;8.80;;
77598;SDS011;66758;52.078;5.070;2023-04-24T07:22:58;28.83;;;9.75;;
77598;SDS011;66758;52.078;5.070;2023-04-24T07:25:23;27.93;;;9.43;;
77598;SDS011;66758;52.078;5.070;2023-04-24T07:27:48;24.37;;;8.87;;
77598;SDS011;66758;52.078;5.070;2023-04-24T07:30:14;24.10;;;9.13;;
77598;SDS011;66758;52.078;5.070;2023-04-24T07:32:39;24.90;;;7.80;;
77598;SDS011;66758;52.078;5.070;2023-04-24T07:35:04;27.17;;;8.03;;
77598;SDS011;66758;52.078;5.070;2023-04-24T07:37:30;23.03;;;7.97;;
77598;SDS011;66758;52.078;5.070;2023-04-24T07:39:57;26.30;;;7.35;;
77598;SDS011;66758;52.078;5.070;2023-04-24T07:42:22;21.97;;;7.03;;
77598;SDS011;66758;52.078;5.070;2023-04-24T07:44:47;23.80;;;8.67;;
77598;SDS011;66758;52.078;5.070;2023-04-24T07:47:13;21.25;;;5.03;;
77598;SDS011;66758;52.078;5.070;2023-04-24T07:49:41;16.80;;;5.77;;
77598;SDS011;66758;52.078;5.070;2023-04-24T07:52:06;16.05;;;6.03;;
77598;SDS011;66758;52.078;5.070;2023-04-24T07:54:31;15.70;;;4.00;;
77598;SDS011;66758;52.078;5.070;2023-04-24T07:56:56;15.07;;;4.07;;
77598;SDS011;66758;52.078;5.070;2023-04-24T07:59:22;21.43;;;4.23;;
77598;SDS011;66758;52.078;5.070;2023-04-24T08:01:47;19.03;;;4.83;;
77598;SDS011;66758;52.078;5.070;2023-04-24T08:04:12;10.87;;;2.87;;
77598;SDS011;66758;52.078;5.070;2023-04-24T08:06:38;11.33;;;3.40;;
77598;SDS011;66758;52.078;5.070;2023-04-24T08:09:03;14.80;;;3.77;;
77598;SDS011;66758;52.078;5.070;2023-04-24T08:11:28;17.57;;;3.67;;
77598;SDS011;66758;52.078;5.070;2023-04-24T08:13:53;16.03;;;2.90;;
77598;SDS011;66758;52.078;5.070;2023-04-24T08:16:19;6.95;;;2.25;;
77598;SDS011;66758;52.078;5.070;2023-04-24T08:18:45;7.57;;;2.30;;
77598;SDS011;66758;52.078;5.070;2023-04-24T08:21:10;9.73;;;2.27;;
77598;SDS011;66758;52.078;5.070;2023-04-24T08:23:37;12.75;;;2.70;;
77598;SDS011;66758;52.078;5.070;2023-04-24T08:26:03;14.47;;;2.57;;
77598;SDS011;66758;52.078;5.070;2023-04-24T08:28:28;11.37;;;3.07;;
77598;SDS011;66758;52.078;5.070;2023-04-24T08:30:53;10.47;;;3.10;;
77598;SDS011;66758;52.078;5.070;2023-04-24T08:33:23;12.75;;;2.30;;
77598;SDS011;66758;52.078;5.070;2023-04-24T08:35:48;9.82;;;1.77;;
77598;SDS011;66758;52.078;5.070;2023-04-24T08:38:14;11.57;;;2.17;;
77598;SDS011;66758;52.078;5.070;2023-04-24T08:40:40;12.48;;;2.33;;
77598;SDS011;66758;52.078;5.070;2023-04-24T08:43:05;7.63;;;2.00;;
77598;SDS011;66758;52.078;5.070;2023-04-24T08:45:31;9.83;;;2.13;;
77598;SDS011;66758;52.078;5.070;2023-04-24T08:47:57;21.05;;;2.85;;
77598;SDS011;66758;52.078;5.070;2023-04-24T08:50:23;14.07;;;2.40;;
77598;SDS011;66758;52.078;5.070;2023-04-24T08:52:50;23.70;;;2.92;;
77598;SDS011;66758;52.078;5.070;2023-04-24T08:55:18;6.83;;;2.43;;
77598;SDS011;66758;52.078;5.070;2023-04-24T08:57:45;17.02;;;2.97;;
77598;SDS011;66758;52.078;5.070;2023-04-24T09:00:10;11.18;;;2.97;;
77598;SDS011;66758;52.078;5.070;2023-04-24T09:02:36;7.97;;;2.10;;
77598;SDS011;66758;52.078;5.070;2023-04-24T09:05:01;9.27;;;1.63;;
77598;SDS011;66758;52.078;5.070;2023-04-24T09:07:30;4.53;;;1.50;;
77598;SDS011;66758;52.078;5.070;2023-04-24T09:09:58;12.95;;;2.65;;
77598;SDS011;66758;52.078;5.070;2023-04-24T09:12:24;4.20;;;1.58;;
77598;SDS011;66758;52.078;5.070;2023-04-24T09:14:49;7.40;;;1.73;;
77598;SDS011;66758;52.078;5.070;2023-04-24T09:17:15;5.53;;;1.27;;
77598;SDS011;66758;52.078;5.070;2023-04-24T09:19:40;7.63;;;2.33;;
77598;SDS011;66758;52.078;5.070;2023-04-24T09:22:06;7.17;;;2.23;;
77598;SDS011;66758;52.078;5.070;2023-04-24T09:24:31;9.10;;;1.77;;
77598;SDS011;66758;52.078;5.070;2023-04-24T09:26:57;6.93;;;1.50;;
77598;SDS011;66758;52.078;5.070;2023-04-24T09:29:26;13.27;;;2.40;;
77598;SDS011;66758;52.078;5.070;2023-04-24T09:31:52;8.63;;;1.98;;
77598;SDS011;66758;52.078;5.070;2023-04-24T09:34:22;8.67;;;1.73;;
77598;SDS011;66758;52.078;5.070;2023-04-24T09:36:48;5.82;;;1.77;;
77598;SDS011;66758;52.078;5.070;2023-04-24T09:39:14;8.23;;;1.20;;
77598;SDS011;66758;52.078;5.070;2023-04-24T09:41:55;9.15;;;1.52;;
77598;SDS011;66758;52.078;5.070;2023-04-24T09:44:22;5.03;;;1.70;;
77598;SDS011;66758;52.078;5.070;2023-04-24T09:49:32;7.97;;;1.50;;
77598;SDS011;66758;52.078;5.070;2023-04-24T09:54:29;12.53;;;2.00;;
77598;SDS011;66758;52.078;5.070;2023-04-24T09:56:56;4.15;;;1.10;;
77598;SDS011;66758;52.078;5.070;2023-04-24T09:59:21;8.70;;;1.87;;
77598;SDS011;66758;52.078;5.070;2023-04-24T10:01:47;5.10;;;1.42;;
77598;SDS011;66758;52.078;5.070;2023-04-24T10:04:23;8.00;;;1.40;;
77598;SDS011;66758;52.078;5.070;2023-04-24T10:06:50;8.98;;;1.73;;
77598;SDS011;66758;52.078;5.070;2023-04-24T10:09:17;6.10;;;1.30;;
77598;SDS011;66758;52.078;5.070;2023-04-24T10:11:43;2.20;;;0.70;;
77598;SDS011;66758;52.078;5.070;2023-04-24T10:14:17;6.07;;;1.37;;
77598;SDS011;66758;52.078;5.070;2023-04-24T10:16:43;2.63;;;0.75;;
77598;SDS011;66758;52.078;5.070;2023-04-24T10:19:09;4.85;;;1.00;;
77598;SDS011;66758;52.078;5.070;2023-04-24T10:21:36;4.50;;;0.95;;
77598;SDS011;66758;52.078;5.070;2023-04-24T10:24:07;7.90;;;0.75;;
77598;SDS011;66758;52.078;5.070;2023-04-24T10:26:32;4.23;;;1.20;;
77598;SDS011;66758;52.078;5.070;2023-04-24T10:28:58;6.13;;;1.43;;
77598;SDS011;66758;52.078;5.070;2023-04-24T10:31:23;5.43;;;1.13;;
77598;SDS011;66758;52.078;5.070;2023-04-24T10:33:49;6.00;;;0.57;;
77598;SDS011;66758;52.078;5.070;2023-04-24T10:36:14;5.97;;;0.67;;
77598;SDS011;66758;52.078;5.070;2023-04-24T10:38:41;4.97;;;0.75;;
77598;SDS011;66758;52.078;5.070;2023-04-24T10:41:08;6.30;;;1.02;;
77598;SDS011;66758;52.078;5.070;2023-04-24T10:43:34;4.55;;;0.93;;
77598;SDS011;66758;52.078;5.070;2023-04-24T10:46:03;3.73;;;0.50;;
77598;SDS011;66758;52.078;5.070;2023-04-24T10:48:29;2.22;;;0.43;;
77598;SDS011;66758;52.078;5.070;2023-04-24T10:50:56;3.87;;;0.73;;
77598;SDS011;66758;52.078;5.070;2023-04-24T10:53:22;4.25;;;0.80;;
77598;SDS011;66758;52.078;5.070;2023-04-24T10:55:52;3.75;;;0.93;;
77598;SDS011;66758;52.078;5.070;2023-04-24T10:58:22;4.78;;;1.08;;
77598;SDS011;66758;52.078;5.070;2023-04-24T11:00:58;5.13;;;0.50;;
77598;SDS011;66758;52.078;5.070;2023-04-24T11:05:55;3.38;;;0.55;;
77598;SDS011;66758;52.078;5.070;2023-04-24T11:11:14;3.67;;;0.53;;
77598;SDS011;66758;52.078;5.070;2023-04-24T11:21:42;4.68;;;0.77;;
77598;SDS011;66758;52.078;5.070;2023-04-24T11:24:24;2.22;;;0.60;;
77598;SDS011;66758;52.078;5.070;2023-04-24T11:26:51;2.67;;;0.80;;
77598;SDS011;66758;52.078;5.070;2023-04-24T11:29:17;2.97;;;0.65;;
77598;SDS011;66758;52.078;5.070;2023-04-24T11:31:44;4.10;;;0.65;;
77598;SDS011;66758;52.078;5.070;2023-04-24T11:34:16;2.75;;;0.55;;
77598;SDS011;66758;52.078;5.070;2023-04-24T11:36:46;3.27;;;0.87;;
77598;SDS011;66758;52.078;5.070;2023-04-24T11:39:12;2.35;;;1.00;;
77598;SDS011;66758;52.078;5.070;2023-04-24T11:41:38;4.45;;;0.95;;
77598;SDS011;66758;52.078;5.070;2023-04-24T11:44:08;3.93;;;0.60;;
77598;SDS011;66758;52.078;5.070;2023-04-24T11:46:35;4.88;;;0.77;;
77598;SDS011;66758;52.078;5.070;2023-04-24T11:49:02;6.00;;;0.77;;
77598;SDS011;66758;52.078;5.070;2023-04-24T11:51:28;5.27;;;0.97;;
77598;SDS011;66758;52.078;5.070;2023-04-24T11:53:55;4.43;;;0.70;;
77598;SDS011;66758;52.078;5.070;2023-04-24T11:56:23;7.95;;;1.10;;
77598;SDS011;66758;52.078;5.070;2023-04-24T11:58:51;3.50;;;1.08;;
77598;SDS011;66758;52.078;5.070;2023-04-24T12:01:17;4.00;;;1.13;;
77598;SDS011;66758;52.078;5.070;2023-04-24T12:03:46;3.17;;;0.90;;
77598;SDS011;66758;52.078;5.070;2023-04-24T12:06:12;4.30;;;0.80;;
77598;SDS011;66758;52.078;5.070;2023-04-24T12:08:37;6.20;;;1.00;;
77598;SDS011;66758;52.078;5.070;2023-04-24T12:11:04;5.80;;;1.00;;
77598;SDS011;66758;52.078;5.070;2023-04-24T12:13:32;7.68;;;1.48;;
77598;SDS011;66758;52.078;5.070;2023-04-24T12:15:57;6.93;;;1.10;;
77598;SDS011;66758;52.078;5.070;2023-04-24T12:18:23;4.90;;;1.50;;
77598;SDS011;66758;52.078;5.070;2023-04-24T12:20:48;4.38;;;1.50;;
77598;SDS011;66758;52.078;5.070;2023-04-24T12:23:14;6.70;;;1.20;;
77598;SDS011;66758;52.078;5.070;2023-04-24T12:25:39;8.43;;;1.10;;
77598;SDS011;66758;52.078;5.070;2023-04-24T12:30:33;4.67;;;1.00;;
77598;SDS011;66758;52.078;5.070;2023-04-24T12:32:59;5.32;;;1.48;;
77598;SDS011;66758;52.078;5.070;2023-04-24T12:35:26;3.95;;;1.10;;
77598;SDS011;66758;52.078;5.070;2023-04-24T12:37:52;8.13;;;1.63;;
77598;SDS011;66758;52.078;5.070;2023-04-24T12:40:18;13.43;;;1.70;;
77598;SDS011;66758;52.078;5.070;2023-04-24T12:42:47;3.88;;;1.00;;
77598;SDS011;66758;52.078;5.070;2023-04-24T12:45:13;5.85;;;1.40;;
77598;SDS011;66758;52.078;5.070;2023-04-24T12:47:39;3.97;;;0.90;;
77598;SDS011;66758;52.078;5.070;2023-04-24T12:50:05;6.95;;;1.70;;
77598;SDS011;66758;52.078;5.070;2023-04-24T12:52:31;8.95;;;2.30;;
77598;SDS011;66758;52.078;5.070;2023-04-24T12:54:57;10.15;;;1.77;;
77598;SDS011;66758;52.078;5.070;2023-04-24T12:57:23;8.82;;;2.15;;
77598;SDS011;66758;52.078;5.070;2023-04-24T12:59:49;16.90;;;2.53;;
77598;SDS011;66758;52.078;5.070;2023-04-24T13:02:15;6.22;;;1.40;;
77598;SDS011;66758;52.078;5.070;2023-04-24T13:04:46;10.75;;;1.90;;
77598;SDS011;66758;52.078;5.070;2023-04-24T13:07:13;8.68;;;1.55;;
77598;SDS011;66758;52.078;5.070;2023-04-24T13:09:39;10.02;;;1.90;;
77598;SDS011;66758;52.078;5.070;2023-04-24T13:12:04;8.43;;;1.87;;
77598;SDS011;66758;52.078;5.070;2023-04-24T13:14:30;6.10;;;1.85;;
77598;SDS011;66758;52.078;5.070;2023-04-24T13:16:56;12.63;;;1.60;;
77598;SDS011;66758;52.078;5.070;2023-04-24T13:19:21;6.53;;;1.83;;
77598;SDS011;66758;52.078;5.070;2023-04-24T13:21:46;6.93;;;1.83;;
77598;SDS011;66758;52.078;5.070;2023-04-24T13:24:11;12.07;;;2.17;;
77598;SDS011;66758;52.078;5.070;2023-04-24T13:26:38;10.23;;;2.58;;
77598;SDS011;66758;52.078;5.070;2023-04-24T13:29:03;7.07;;;2.47;;
77598;SDS011;66758;52.078;5.070;2023-04-24T13:31:28;10.85;;;3.45;;
77598;SDS011;66758;52.078;5.070;2023-04-24T13:33:53;7.43;;;1.30;;
77598;SDS011;66758;52.078;5.070;2023-04-24T13:36:19;9.10;;;1.87;;
77598;SDS011;66758;52.078;5.070;2023-04-24T13:38:44;6.73;;;1.33;;
77598;SDS011;66758;52.078;5.070;2023-04-24T13:41:10;8.33;;;2.10;;
77598;SDS011;66758;52.078;5.070;2023-04-24T13:43:35;9.73;;;2.00;;
77598;SDS011;66758;52.078;5.070;2023-04-24T13:46:00;8.77;;;2.77;;
77598;SDS011;66758;52.078;5.070;2023-04-24T13:48:28;8.82;;;2.33;;
77598;SDS011;66758;52.078;5.070;2023-04-24T13:50:53;13.87;;;2.60;;
77598;SDS011;66758;52.078;5.070;2023-04-24T13:53:18;11.57;;;2.30;;
77598;SDS011;66758;52.078;5.070;2023-04-24T13:55:43;7.87;;;1.67;;
77598;SDS011;66758;52.078;5.070;2023-04-24T13:58:10;7.93;;;2.10;;
77598;SDS011;66758;52.078;5.070;2023-04-24T14:00:35;9.27;;;2.10;;
77598;SDS011;66758;52.078;5.070;2023-04-24T14:03:01;7.67;;;2.17;;
77598;SDS011;66758;52.078;5.070;2023-04-24T14:05:26;13.07;;;2.93;;
77598;SDS011;66758;52.078;5.070;2023-04-24T14:07:51;15.23;;;3.37;;
77598;SDS011;66758;52.078;5.070;2023-04-24T14:10:17;9.83;;;2.83;;
77598;SDS011;66758;52.078;5.070;2023-04-24T14:12:42;12.75;;;3.78;;
77598;SDS011;66758;52.078;5.070;2023-04-24T14:15:07;10.37;;;2.30;;
77598;SDS011;66758;52.078;5.070;2023-04-24T14:17:33;13.30;;;3.77;;
77598;SDS011;66758;52.078;5.070;2023-04-24T14:19:59;12.13;;;3.13;;
77598;SDS011;66758;52.078;5.070;2023-04-24T14:22:25;10.60;;;2.47;;
77598;SDS011;66758;52.078;5.070;2023-04-24T14:24:50;9.75;;;2.42;;
77598;SDS011;66758;52.078;5.070;2023-04-24T14:27:16;6.70;;;2.33;;
77598;SDS011;66758;52.078;5.070;2023-04-24T14:29:41;9.90;;;2.10;;
77598;SDS011;66758;52.078;5.070;2023-04-24T14:32:06;10.63;;;2.60;;
77598;SDS011;66758;52.078;5.070;2023-04-24T14:34:31;10.50;;;3.70;;
77598;SDS011;66758;52.078;5.070;2023-04-24T14:36:57;10.63;;;2.57;;
77598;SDS011;66758;52.078;5.070;2023-04-24T14:39:24;8.82;;;2.50;;
77598;SDS011;66758;52.078;5.070;2023-04-24T14:41:50;13.23;;;3.40;;
77598;SDS011;66758;52.078;5.070;2023-04-24T14:44:15;7.80;;;2.47;;
77598;SDS011;66758;52.078;5.070;2023-04-24T14:46:41;13.83;;;3.00;;
77598;SDS011;66758;52.078;5.070;2023-04-24T14:49:08;6.63;;;2.30;;
77598;SDS011;66758;52.078;5.070;2023-04-24T14:51:34;9.50;;;3.30;;
77598;SDS011;66758;52.078;5.070;2023-04-24T14:54:00;9.40;;;2.40;;